Time;durP1;ratioP1;P1;durP2;ratioP2;P2;SDS_P1;SDS_P2;PMS_P1;PMS_P2;Temp;Humidity;BMP_temperature;BMP_pressure;BME280_temperature;BME280_humidity;BME280_pressure;Samples;Min_cycle;Max_cycle;Signal;HPM_P1;HPM_P2
2022/09/13 00:01:06;;;;;;;19.27;17.38;;;17.60;99.90;;;;;;5053304;28;20055;-85
2022/09/13 00:03:32;;;;;;;28.83;25.25;;;17.60;99.90;;;;;;5053360;27;20091;-85
2022/09/13 00:06:05;;;;;;;31.77;28.42;;;17.60;99.90;;;;;;5063114;27;20052;-85
2022/09/13 00:08:34;;;;;;;23.58;21.08;;;17.60;99.90;;;;;;5090754;28;20036;-85
2022/09/13 00:11:00;;;;;;;32.60;26.83;;;17.60;99.90;;;;;;5060794;27;20043;-84
2022/09/13 00:13:26;;;;;;;27.60;24.27;;;17.60;99.90;;;;;;5036238;28;20114;-86
2022/09/13 00:15:51;;;;;;;41.65;27.63;;;17.60;99.90;;;;;;5045809;27;20046;-86
2022/09/13 00:18:18;;;;;;;46.80;29.42;;;17.60;99.90;;;;;;5068591;28;20036;-86
2022/09/13 00:20:44;;;;;;;25.08;22.45;;;17.60;99.90;;;;;;5041277;28;20048;-85
2022/09/13 00:23:10;;;;;;;39.03;30.05;;;17.60;99.90;;;;;;5044906;28;20197;-85
2022/09/13 00:25:37;;;;;;;42.65;31.40;;;17.60;99.90;;;;;;5064269;28;20040;-85
2022/09/13 00:28:03;;;;;;;39.78;29.92;;;17.70;99.90;;;;;;5054548;28;20055;-86
2022/09/13 00:30:29;;;;;;;28.35;24.80;;;17.60;99.90;;;;;;5069364;28;20043;-86
2022/09/13 00:32:55;;;;;;;28.13;23.35;;;17.60;99.90;;;;;;5060436;28;20329;-86
2022/09/13 00:35:22;;;;;;;24.60;22.13;;;17.60;99.90;;;;;;5053523;28;20471;-86
2022/09/13 00:37:48;;;;;;;20.65;18.75;;;17.60;99.90;;;;;;5057884;27;20039;-85
2022/09/13 00:40:14;;;;;;;22.50;19.52;;;17.70;99.90;;;;;;5067255;28;20040;-84
2022/09/13 00:42:40;;;;;;;23.55;21.23;;;17.70;99.90;;;;;;5084808;27;20052;-85
2022/09/13 00:45:09;;;;;;;27.83;25.02;;;17.60;99.90;;;;;;5060756;27;20065;-85
2022/09/13 00:47:53;;;;;;;21.45;19.20;;;17.60;99.90;;;;;;5082721;28;20134;-86
2022/09/13 00:50:34;;;;;;;19.83;17.92;;;17.60;99.90;;;;;;5086990;27;20042;-85
2022/09/13 00:53:08;;;;;;;23.23;20.85;;;17.60;99.90;;;;;;5071067;28;20758;-85
2022/09/13 00:56:00;;;;;;;29.40;26.35;;;17.60;99.90;;;;;;5071075;28;20135;-85
2022/09/13 00:58:32;;;;;;;26.25;23.48;;;17.60;99.90;;;;;;5074351;27;20558;-85
2022/09/13 01:01:01;;;;;;;25.63;22.92;;;17.60;99.90;;;;;;5074230;27;20118;-86
2022/09/13 01:03:30;;;;;;;28.23;25.27;;;17.60;99.90;;;;;;5054230;27;20092;-86
2022/09/13 01:06:06;;;;;;;27.00;24.25;;;17.60;99.90;;;;;;5067495;28;20047;-86
2022/09/13 01:08:34;;;;;;;26.65;23.95;;;17.60;99.90;;;;;;5086732;28;20051;-86
2022/09/13 01:11:02;;;;;;;27.60;24.80;;;17.60;99.90;;;;;;5054721;28;20494;-86
2022/09/13 01:13:35;;;;;;;27.23;24.38;;;17.60;99.90;;;;;;5084092;28;20122;-85
2022/09/13 01:16:03;;;;;;;37.53;30.23;;;17.60;99.90;;;;;;5071314;28;20048;-86
2022/09/13 01:18:29;;;;;;;28.77;25.85;;;17.60;99.90;;;;;;5067385;28;20036;-86
2022/09/13 01:21:11;;;;;;;51.50;35.17;;;17.60;99.90;;;;;;5065401;27;20073;-86
2022/09/13 01:23:49;;;;;;;23.65;21.42;;;17.60;99.90;;;;;;5078975;28;20401;-85
2022/09/13 01:26:29;;;;;;;26.40;23.73;;;17.50;99.90;;;;;;5065507;28;20126;-86
2022/09/13 01:29:04;;;;;;;26.30;23.75;;;17.50;99.90;;;;;;5076859;27;20043;-86
2022/09/13 01:31:41;;;;;;;26.77;23.98;;;17.50;99.90;;;;;;5068942;28;20695;-85
2022/09/13 01:34:38;;;;;;;51.92;35.65;;;17.50;99.90;;;;;;5075202;27;20054;-85
2022/09/13 01:37:25;;;;;;;35.50;28.15;;;17.60;99.90;;;;;;5080254;28;20073;-85
2022/09/13 01:40:22;;;;;;;27.70;24.92;;;17.50;99.90;;;;;;5072713;27;20497;-85
2022/09/13 01:43:02;;;;;;;30.25;27.05;;;17.50;99.90;;;;;;5080823;28;20043;-85
2022/09/13 01:45:42;;;;;;;34.33;30.70;;;17.50;99.90;;;;;;5066915;27;20122;-86
2022/09/13 01:48:19;;;;;;;;;;;17.50;99.90;;;;;;5087988;28;20043;-86
2022/09/13 01:51:04;;;;;;;38.00;30.60;;;17.50;99.90;;;;;;5083221;27;20009;-85
2022/09/13 01:53:45;;;;;;;29.75;26.88;;;17.50;99.90;;;;;;5083603;27;20048;-86
2022/09/13 01:56:40;;;;;;;28.50;25.70;;;17.50;99.90;;;;;;5071265;28;20450;-86
2022/09/13 01:59:19;;;;;;;29.38;26.58;;;17.50;99.90;;;;;;5073680;28;20040;-86
2022/09/13 02:02:20;;;;;;;34.25;30.70;;;17.50;99.90;;;;;;5078988;28;20414;-86
2022/09/13 02:04:53;;;;;;;35.10;31.40;;;17.50;99.90;;;;;;5071536;28;20192;-86
2022/09/13 02:07:39;;;;;;;36.33;32.63;;;17.50;99.90;;;;;;5065455;28;20051;-85
2022/09/13 02:10:29;;;;;;;33.50;30.17;;;17.50;99.90;;;;;;5076562;28;20101;-85
2022/09/13 02:12:56;;;;;;;;;;;17.50;99.90;;;;;;5062624;28;20270;-85
2022/09/13 02:15:35;;;;;;;85.65;45.22;;;17.40;99.90;;;;;;5054697;28;20064;-85
2022/09/13 02:18:09;;;;;;;38.72;34.83;;;17.50;99.90;;;;;;5076336;28;20119;-85
2022/09/13 02:20:42;;;;;;;38.80;34.90;;;17.40;99.90;;;;;;5067687;28;20421;-85
2022/09/13 02:23:14;;;;;;;42.70;38.03;;;17.50;99.90;;;;;;5073016;28;20398;-85
2022/09/13 02:25:41;;;;;;;36.78;32.85;;;17.40;99.90;;;;;;5069818;28;20063;-85
2022/09/13 02:28:11;;;;;;;38.75;34.60;;;17.40;99.90;;;;;;5065030;28;20044;-85
2022/09/13 02:30:40;;;;;;;47.97;40.55;;;17.40;99.90;;;;;;5049215;28;20506;-85
2022/09/13 02:33:38;;;;;;;37.27;33.50;;;17.50;99.90;;;;;;5070731;28;20040;-86
2022/09/13 02:36:12;;;;;;;36.22;32.42;;;17.40;99.90;;;;;;5067776;28;20941;-85
2022/09/13 02:38:46;;;;;;;49.22;40.60;;;17.40;99.90;;;;;;5052826;28;20100;-85
2022/09/13 02:41:29;;;;;;;49.50;40.13;;;17.50;99.90;;;;;;5080412;28;20131;-85
2022/09/13 02:44:10;;;;;;;78.95;43.70;;;17.40;99.90;;;;;;5053210;28;20039;-86
2022/09/13 02:46:47;;;;;;;56.38;41.72;;;17.50;99.90;;;;;;5057678;28;20048;-86
2022/09/13 02:49:51;;;;;;;34.78;31.10;;;17.50;99.90;;;;;;5047326;28;20133;-86
2022/09/13 02:52:48;;;;;;;275.08;75.40;;;17.50;99.90;;;;;;5057668;28;20059;-86
2022/09/13 02:55:33;;;;;;;45.33;37.70;;;17.50;99.90;;;;;;5063389;28;20052;-87
2022/09/13 02:58:16;;;;;;;46.30;36.65;;;17.50;99.90;;;;;;5065198;28;20040;-86
2022/09/13 03:00:44;;;;;;;38.63;34.55;;;17.50;99.90;;;;;;5079181;28;20080;-81
2022/09/13 03:03:16;;;;;;;39.30;35.15;;;17.50;99.90;;;;;;5070043;28;20056;-85
2022/09/13 03:05:43;;;;;;;35.35;31.60;;;17.50;99.90;;;;;;5057611;28;20090;-86
2022/09/13 03:08:12;;;;;;;42.65;34.28;;;17.50;99.90;;;;;;5050550;28;20055;-87
2022/09/13 03:10:59;;;;;;;53.13;35.72;;;17.50;99.90;;;;;;5051179;28;20047;-86
2022/09/13 03:14:21;;;;;;;40.03;34.00;;;17.60;99.90;;;;;;5065825;28;20749;-87
2022/09/13 03:17:26;;;;;;;35.30;31.58;;;17.50;99.90;;;;;;5025985;28;20056;-86
2022/09/13 03:20:08;;;;;;;34.08;30.48;;;17.50;99.90;;;;;;5052276;28;20086;-85
2022/09/13 03:23:02;;;;;;;37.50;33.42;;;17.50;99.90;;;;;;5054006;28;20382;-86
2022/09/13 03:26:16;;;;;;;35.38;31.52;;;17.50;99.90;;;;;;5077180;28;20047;-86
2022/09/13 03:29:09;;;;;;;49.30;33.03;;;17.50;99.90;;;;;;5060151;28;20051;-86
2022/09/13 03:32:18;;;;;;;32.67;28.73;;;17.50;99.90;;;;;;5059626;28;20051;-85
2022/09/13 03:35:09;;;;;;;31.55;28.25;;;17.50;99.90;;;;;;5078747;28;20079;-86
2022/09/13 03:37:52;;;;;;;30.27;26.95;;;17.50;99.90;;;;;;5055955;28;20050;-86
2022/09/13 03:40:48;;;;;;;29.10;25.98;;;17.50;99.90;;;;;;5058519;28;20051;-86
2022/09/13 03:43:26;;;;;;;26.90;24.05;;;17.50;99.90;;;;;;5064238;28;20046;-85
2022/09/13 03:45:57;;;;;;;26.58;23.88;;;17.50;99.90;;;;;;5058720;28;20044;-86
2022/09/13 03:48:24;;;;;;;32.72;25.55;;;17.50;99.90;;;;;;5070985;28;20051;-86
2022/09/13 03:50:50;;;;;;;27.88;24.92;;;17.50;99.90;;;;;;5072489;28;20090;-85
2022/09/13 03:53:24;;;;;;;24.85;22.38;;;17.50;99.90;;;;;;5047730;28;20079;-85
2022/09/13 03:55:50;;;;;;;26.58;23.70;;;17.50;99.90;;;;;;5077936;28;20059;-86
2022/09/13 03:58:19;;;;;;;27.23;24.50;;;17.50;99.90;;;;;;5040460;28;20051;-85
2022/09/13 04:00:45;;;;;;;30.15;26.30;;;17.50;99.90;;;;;;5059997;28;21236;-86
2022/09/13 04:03:12;;;;;;;24.50;22.00;;;17.50;99.90;;;;;;5070925;28;20044;-86
2022/09/13 04:05:38;;;;;;;27.92;23.83;;;17.50;99.90;;;;;;5073108;28;20094;-86
2022/09/13 04:08:08;;;;;;;33.42;24.73;;;17.60;99.90;;;;;;5055472;28;20125;-86
2022/09/13 04:10:36;;;;;;;25.20;21.98;;;17.60;99.90;;;;;;5056201;28;20529;-87
2022/09/13 04:13:02;;;;;;;23.70;21.25;;;17.60;99.90;;;;;;5039515;28;20071;-86
2022/09/13 04:15:31;;;;;;;72.13;32.42;;;17.60;99.90;;;;;;5058184;28;20047;-86
2022/09/13 04:17:57;;;;;;;22.65;20.27;;;17.60;99.90;;;;;;5038733;28;20083;-85
2022/09/13 04:20:23;;;;;;;24.40;21.35;;;17.60;99.90;;;;;;5039946;28;20102;-87
2022/09/13 04:22:54;;;;;;;49.60;27.30;;;17.70;99.90;;;;;;5046509;28;20543;-87
2022/09/13 04:25:21;;;;;;;27.65;20.23;;;17.70;99.90;;;;;;5060469;28;20143;-87
2022/09/13 04:27:48;;;;;;;21.65;19.38;;;17.70;99.90;;;;;;5052055;28;20048;-87
2022/09/13 04:30:14;;;;;;;23.23;20.38;;;17.70;99.90;;;;;;5068714;28;20048;-87
2022/09/13 04:32:43;;;;;;;22.00;19.58;;;17.70;99.90;;;;;;5056029;28;20105;-86
2022/09/13 04:35:12;;;;;;;26.23;21.77;;;17.70;99.90;;;;;;5039538;28;20592;-87
2022/09/13 04:37:38;;;;;;;68.53;32.72;;;17.70;99.90;;;;;;5058423;28;20081;-86
2022/09/13 04:40:08;;;;;;;30.00;23.88;;;17.80;99.90;;;;;;5056100;28;20388;-87
2022/09/13 04:42:38;;;;;;;26.50;22.67;;;17.70;99.90;;;;;;5046971;28;20270;-86
2022/09/13 04:45:05;;;;;;;;;;;17.80;99.90;;;;;;5048569;28;20070;-86
2022/09/13 04:47:31;;;;;;;56.80;32.20;;;17.70;99.90;;;;;;5055185;28;19927;-87
2022/09/13 04:49:58;;;;;;;22.65;18.73;;;17.70;99.90;;;;;;5049396;28;20040;-87
2022/09/13 04:52:24;;;;;;;24.83;21.77;;;17.80;99.90;;;;;;5052962;28;20629;-86
2022/09/13 04:54:50;;;;;;;110.97;38.45;;;17.80;99.90;;;;;;5042322;28;20052;-87
2022/09/13 04:57:16;;;;;;;23.45;20.20;;;17.70;99.90;;;;;;5046266;28;20264;-86
2022/09/13 04:59:42;;;;;;;19.17;17.27;;;17.80;99.90;;;;;;5070580;28;20055;-87
2022/09/13 05:02:08;;;;;;;37.50;26.25;;;17.80;99.90;;;;;;5051888;28;20410;-86
2022/09/13 05:04:34;;;;;;;27.85;22.13;;;17.80;99.90;;;;;;5074185;28;20036;-86
2022/09/13 05:07:00;;;;;;;16.98;15.38;;;17.80;99.90;;;;;;5038812;28;20054;-86
2022/09/13 05:09:26;;;;;;;62.20;32.15;;;17.80;99.90;;;;;;5065179;27;20035;-87
2022/09/13 05:11:52;;;;;;;27.38;22.70;;;17.80;99.90;;;;;;5072193;28;20039;-86
2022/09/13 05:14:18;;;;;;;21.30;18.95;;;17.80;99.90;;;;;;5056568;27;20036;-85
2022/09/13 05:16:47;;;;;;;52.70;27.75;;;17.80;99.90;;;;;;5042435;27;20046;-86
2022/09/13 05:19:13;;;;;;;18.30;16.52;;;17.80;99.90;;;;;;5049726;27;20051;-86
2022/09/13 05:21:39;;;;;;;16.55;14.95;;;17.80;99.90;;;;;;5061182;27;20047;-86
2022/09/13 05:24:04;;;;;;;23.08;19.15;;;17.80;99.90;;;;;;5063872;27;20133;-86
2022/09/13 05:26:30;;;;;;;40.13;24.48;;;17.80;99.90;;;;;;5058554;27;20117;-86
2022/09/13 05:28:58;;;;;;;16.60;15.00;;;17.90;99.90;;;;;;5046968;27;20240;-86
2022/09/13 05:31:41;;;;;;;15.45;13.85;;;17.80;99.90;;;;;;5088763;28;20047;-86
2022/09/13 05:34:10;;;;;;;42.85;23.45;;;17.80;99.90;;;;;;5079526;28;20035;-86
2022/09/13 05:36:40;;;;;;;24.27;19.73;;;17.80;99.90;;;;;;5083251;28;20134;-86
2022/09/13 05:39:16;;;;;;;14.73;13.25;;;17.90;99.90;;;;;;5047105;28;20052;-80
2022/09/13 05:41:42;;;;;;;35.28;20.48;;;17.90;99.90;;;;;;5080642;28;20127;-80
2022/09/13 05:44:08;;;;;;;15.43;13.93;;;17.80;99.90;;;;;;5062211;28;20514;-80
2022/09/13 05:46:34;;;;;;;27.50;17.58;;;17.90;99.90;;;;;;5046238;28;20127;-80
2022/09/13 05:49:00;;;;;;;15.73;13.25;;;17.80;99.90;;;;;;5049761;28;20130;-83
2022/09/13 05:51:27;;;;;;;26.95;17.63;;;17.90;99.90;;;;;;5053393;27;20611;-85
2022/09/13 05:53:54;;;;;;;29.88;17.50;;;17.90;99.90;;;;;;5065621;28;20043;-83
2022/09/13 05:56:23;;;;;;;33.60;18.48;;;17.90;99.90;;;;;;5077126;28;20044;-83
2022/09/13 05:58:51;;;;;;;13.90;12.43;;;17.90;99.90;;;;;;5071682;28;20366;-85
2022/09/13 06:01:20;;;;;;;13.07;11.73;;;17.90;99.90;;;;;;5050279;28;20087;-85
2022/09/13 06:03:48;;;;;;;40.40;20.03;;;17.90;99.90;;;;;;5069319;27;20066;-86
2022/09/13 06:06:17;;;;;;;11.25;9.90;;;17.90;99.90;;;;;;5051170;27;20047;-85
2022/09/13 06:08:44;;;;;;;11.73;9.68;;;17.90;99.90;;;;;;5073631;27;20112;-85
2022/09/13 06:11:11;;;;;;;9.10;7.43;;;17.90;99.90;;;;;;5041092;28;20040;-86
2022/09/13 06:13:38;;;;;;;14.40;10.02;;;17.90;99.90;;;;;;5080483;27;20133;-85
2022/09/13 06:16:09;;;;;;;11.82;9.25;;;17.80;99.90;;;;;;5083369;28;20628;-82
2022/09/13 06:18:38;;;;;;;12.50;8.13;;;17.80;99.90;;;;;;5061592;28;20134;-85
2022/09/13 06:21:10;;;;;;;9.32;6.60;;;17.80;99.90;;;;;;5029104;28;20513;-85
2022/09/13 06:23:39;;;;;;;9.70;6.85;;;17.80;99.90;;;;;;5062981;28;20055;-86
2022/09/13 06:26:13;;;;;;;6.80;5.50;;;17.80;99.90;;;;;;5071484;28;20486;-85
2022/09/13 06:28:39;;;;;;;7.28;5.38;;;17.90;99.90;;;;;;5062734;28;20044;-85
2022/09/13 06:31:08;;;;;;;6.80;5.07;;;17.80;99.90;;;;;;5071487;28;20109;-85
2022/09/13 06:33:35;;;;;;;7.55;4.15;;;17.80;99.90;;;;;;5074452;28;20036;-85
2022/09/13 06:36:07;;;;;;;7.10;4.18;;;17.80;99.90;;;;;;5048959;27;20501;-85
2022/09/13 06:38:33;;;;;;;9.65;5.85;;;17.70;99.90;;;;;;5084490;28;20034;-85
2022/09/13 06:41:21;;;;;;;8.18;5.22;;;17.70;99.90;;;;;;5065836;27;20039;-84
2022/09/13 06:43:50;;;;;;;8.00;4.40;;;17.70;99.90;;;;;;5068678;28;20101;-85
2022/09/13 06:46:20;;;;;;;8.77;4.88;;;17.60;99.90;;;;;;5050985;28;20051;-84
2022/09/13 06:48:47;;;;;;;6.25;4.90;;;17.60;99.90;;;;;;5075721;28;20040;-84
2022/09/13 06:51:15;;;;;;;7.63;5.72;;;17.60;99.90;;;;;;5068903;28;20059;-84
2022/09/13 06:53:42;;;;;;;7.05;4.78;;;17.60;99.90;;;;;;5066957;28;20040;-84
2022/09/13 06:56:11;;;;;;;7.35;4.88;;;17.60;99.90;;;;;;5072419;28;20056;-85
2022/09/13 06:58:39;;;;;;;9.95;5.88;;;17.60;99.90;;;;;;5065880;28;20077;-84
2022/09/13 07:01:13;;;;;;;13.45;8.25;;;17.70;99.90;;;;;;5073002;28;20047;-84
2022/09/13 07:03:44;;;;;;;8.23;5.35;;;17.70;99.90;;;;;;5085989;28;20044;-84
2022/09/13 07:06:13;;;;;;;6.28;4.50;;;17.70;99.90;;;;;;5072293;28;20243;-84
2022/09/13 07:08:40;;;;;;;8.30;4.30;;;17.80;99.90;;;;;;5077536;27;20501;-84
2022/09/13 07:11:08;;;;;;;14.48;6.65;;;17.80;99.90;;;;;;5070161;27;20047;-85
2022/09/13 07:13:34;;;;;;;6.57;4.15;;;17.80;99.90;;;;;;5068724;27;20093;-85
2022/09/13 07:16:06;;;;;;;8.65;4.70;;;17.80;99.90;;;;;;5045771;28;20039;-85
2022/09/13 07:18:38;;;;;;;13.18;7.22;;;17.90;99.90;;;;;;5086726;28;20505;-84
2022/09/13 07:21:10;;;;;;;6.13;4.55;;;17.90;99.90;;;;;;5074381;28;20589;-85
2022/09/13 07:23:39;;;;;;;6.80;4.13;;;18.00;99.90;;;;;;5086177;28;20756;-85
2022/09/13 07:26:09;;;;;;;8.50;5.17;;;18.00;99.90;;;;;;5051706;28;20321;-87
2022/09/13 07:28:40;;;;;;;8.90;5.10;;;18.10;99.90;;;;;;5052203;28;20310;-87
2022/09/13 07:31:19;;;;;;;9.68;4.25;;;18.10;99.90;;;;;;5083937;28;20625;-87
2022/09/13 07:33:46;;;;;;;4.55;3.42;;;18.20;99.90;;;;;;5070542;28;20055;-86
2022/09/13 07:36:12;;;;;;;8.35;3.30;;;18.20;99.90;;;;;;5066245;28;20044;-85
2022/09/13 07:38:41;;;;;;;9.35;3.85;;;18.20;99.90;;;;;;5071976;28;20036;-85
2022/09/13 07:41:12;;;;;;;7.30;3.30;;;18.30;99.90;;;;;;5071268;27;20043;-85
2022/09/13 07:43:38;;;;;;;6.85;3.50;;;18.30;99.90;;;;;;5070970;27;20047;-86
2022/09/13 07:46:09;;;;;;;7.13;3.00;;;18.30;99.90;;;;;;5055872;27;20051;-86
2022/09/13 07:48:38;;;;;;;6.07;2.03;;;18.40;99.90;;;;;;5073997;28;20051;-86
2022/09/13 07:51:09;;;;;;;5.95;2.60;;;18.50;99.90;;;;;;5073897;27;20058;-87
2022/09/13 07:53:36;;;;;;;7.57;2.92;;;18.60;99.90;;;;;;5072544;28;20044;-89
2022/09/13 07:56:05;;;;;;;9.35;1.55;;;18.80;99.90;;;;;;5076494;28;20639;-88
2022/09/13 07:58:35;;;;;;;5.78;1.50;;;18.90;99.90;;;;;;5080957;27;20475;-88
2022/09/13 08:01:06;;;;;;;5.38;1.83;;;19.10;99.90;;;;;;5071267;28;20055;-90
2022/09/13 08:03:33;;;;;;;6.30;1.67;;;19.10;99.90;;;;;;5079263;27;20104;-92
2022/09/13 08:06:00;;;;;;;6.50;1.50;;;19.10;99.90;;;;;;5055739;27;20051;-91
2022/09/13 08:08:30;;;;;;;5.43;1.30;;;18.90;99.90;;;;;;5088485;27;20092;-89
2022/09/13 08:10:56;;;;;;;6.75;1.65;;;18.90;99.90;;;;;;5069817;28;20040;-92
2022/09/13 08:13:22;;;;;;;8.40;2.05;;;18.70;99.90;;;;;;5053197;27;20503;-90
2022/09/13 08:15:48;;;;;;;7.03;1.40;;;18.70;99.90;;;;;;5079366;27;20210;-89
2022/09/13 08:18:18;;;;;;;5.88;1.40;;;18.60;99.90;;;;;;5056562;27;20497;-90
2022/09/13 08:20:44;;;;;;;4.00;1.05;;;18.50;99.90;;;;;;5092271;27;20486;-86
2022/09/13 08:23:13;;;;;;;5.50;1.08;;;18.50;99.90;;;;;;5058205;27;20043;-91
2022/09/13 08:25:39;;;;;;;7.00;1.27;;;18.60;99.90;;;;;;5060102;28;20043;-92
2022/09/13 08:28:13;;;;;;;4.35;1.27;;;18.60;99.90;;;;;;5082157;27;20114;-93
2022/09/13 08:30:43;;;;;;;4.22;0.80;;;18.80;99.90;;;;;;5098227;27;20462;-91
2022/09/13 08:33:12;;;;;;;3.58;1.60;;;18.90;99.90;;;;;;5072272;27;20044;-89
2022/09/13 08:35:38;;;;;;;5.57;1.20;;;19.10;99.90;;;;;;5078374;27;20434;-90
2022/09/13 08:38:26;;;;;;;3.83;1.15;;;19.40;99.90;;;;;;5080043;28;20055;-89
2022/09/13 08:40:58;;;;;;;4.18;1.00;;;19.70;99.90;;;;;;5098795;27;20039;-90
2022/09/13 08:43:28;;;;;;;4.60;1.13;;;19.90;99.90;;;;;;5087164;27;20051;-89
2022/09/13 08:46:22;;;;;;;5.05;1.08;;;20.20;99.90;;;;;;5070122;28;20077;-89
2022/09/13 08:48:51;;;;;;;2.58;0.70;;;20.30;99.90;;;;;;5087131;28;20059;-91
2022/09/13 08:51:36;;;;;;;;;;;20.20;99.90;;;;;;5084078;28;20067;-90
2022/09/13 08:54:02;;;;;;;3.47;1.10;;;20.10;99.90;;;;;;5082854;27;19923;-91
2022/09/13 08:56:43;;;;;;;4.57;1.00;;;19.90;99.90;;;;;;5058600;28;20065;-90
2022/09/13 08:59:36;;;;;;;4.65;1.02;;;19.90;99.90;;;;;;5077619;28;20047;-91
2022/09/13 09:02:10;;;;;;;3.08;0.60;;;19.90;99.90;;;;;;5082178;27;20039;-88
2022/09/13 09:04:54;;;;;;;5.15;0.70;;;20.00;99.90;;;;;;5073084;27;20511;-90
2022/09/13 09:07:50;;;;;;;4.38;0.70;;;20.20;99.90;;;;;;5070261;28;20506;-89
2022/09/13 09:10:39;;;;;;;3.40;0.90;;;20.30;99.90;;;;;;5093998;27;20055;-91
2022/09/13 09:13:19;;;;;;;4.60;0.82;;;20.40;99.90;;;;;;5077658;28;20051;-89
2022/09/13 09:15:49;;;;;;;4.25;0.88;;;20.50;99.90;;;;;;5070562;28;20042;-86
2022/09/13 09:18:36;;;;;;;4.85;0.80;;;20.50;99.90;;;;;;5076204;27;20035;-89
2022/09/13 09:21:03;;;;;;;5.03;0.70;;;20.40;99.90;;;;;;5075312;27;20063;-90
2022/09/13 09:23:40;;;;;;;4.43;0.60;;;20.20;99.90;;;;;;5058235;27;20039;-86
2022/09/13 09:26:25;;;;;;;3.55;0.65;;;20.20;99.90;;;;;;5079315;28;20842;-84
2022/09/13 09:28:57;;;;;;;4.05;0.60;;;20.30;99.90;;;;;;5064310;28;20043;-84
2022/09/13 09:31:44;;;;;;;3.92;0.60;;;20.50;99.90;;;;;;5084840;28;20040;-85
2022/09/13 09:34:28;;;;;;;3.25;0.57;;;20.70;99.90;;;;;;5074023;28;20162;-85
2022/09/13 09:37:21;;;;;;;5.70;1.40;;;20.70;99.90;;;;;;5065134;27;20051;-84
2022/09/13 09:39:49;;;;;;;2.75;0.57;;;20.80;99.90;;;;;;5072670;28;20137;-85
2022/09/13 09:42:25;;;;;;;4.60;0.80;;;20.90;99.90;;;;;;5068868;28;20076;-84
2022/09/13 09:44:57;;;;;;;5.45;0.70;;;21.10;99.90;;;;;;5065469;27;20127;-85
2022/09/13 09:48:08;;;;;;;4.18;0.70;;;21.20;99.90;;;;;;5081439;28;20160;-85
2022/09/13 09:50:42;;;;;;;5.25;0.85;;;21.00;99.90;;;;;;5093140;28;20388;-85
2022/09/13 09:53:15;;;;;;;3.10;0.60;;;20.80;99.90;;;;;;5063440;28;20036;-86
2022/09/13 09:56:08;;;;;;;3.80;0.60;;;20.90;99.90;;;;;;5064427;28;20483;-85
2022/09/13 09:58:43;;;;;;;3.65;0.50;;;20.90;99.90;;;;;;5082961;28;20039;-86
2022/09/13 10:01:29;;;;;;;5.35;0.85;;;21.00;99.90;;;;;;5067385;28;20560;-85
2022/09/13 10:04:18;;;;;;;5.55;1.10;;;21.20;99.90;;;;;;5073065;28;20058;-86
2022/09/13 10:06:48;;;;;;;6.78;1.08;;;21.30;99.90;;;;;;5067564;28;20581;-82
2022/09/13 10:09:17;;;;;;;4.43;0.85;;;21.40;99.90;;;;;;5063828;28;20059;-83
2022/09/13 10:11:51;;;;;;;4.93;0.70;;;21.40;99.90;;;;;;5069677;28;20035;-83
2022/09/13 10:15:01;;;;;;;3.72;0.60;;;21.30;99.90;;;;;;5069252;28;20499;-84
2022/09/13 10:17:30;;;;;;;6.90;1.17;;;21.10;99.90;;;;;;5060149;28;20128;-82
2022/09/13 10:20:33;;;;;;;4.27;0.60;;;21.20;99.90;;;;;;5059590;28;20298;-82
2022/09/13 10:23:12;;;;;;;3.55;0.65;;;21.20;99.90;;;;;;5033119;28;20316;-85
2022/09/13 10:26:09;;;;;;;5.85;0.65;;;21.40;99.90;;;;;;5059797;28;20058;-84
2022/09/13 10:28:58;;;;;;;5.30;0.73;;;21.50;99.90;;;;;;5062499;28;20043;-84
2022/09/13 10:31:52;;;;;;;5.00;0.68;;;21.70;99.90;;;;;;5065307;28;20138;-85
2022/09/13 10:34:36;;;;;;;5.22;0.60;;;21.80;99.90;;;;;;5064876;28;20060;-83
2022/09/13 10:37:24;;;;;;;5.80;0.60;;;22.10;99.90;;;;;;5066078;28;20052;-83
2022/09/13 10:40:19;;;;;;;6.00;0.80;;;22.10;99.90;;;;;;5085872;28;20055;-84
2022/09/13 10:43:02;;;;;;;5.55;0.68;;;21.90;99.90;;;;;;5059055;28;20039;-84
2022/09/13 10:45:30;;;;;;;3.92;0.50;;;21.80;99.90;;;;;;5071330;28;20043;-84
2022/09/13 10:48:23;;;;;;;2.45;0.40;;;21.80;99.90;;;;;;5068044;28;20051;-84
2022/09/13 10:51:15;;;;;;;2.72;0.60;;;22.00;99.90;;;;;;5069151;28;20048;-85
2022/09/13 10:53:45;;;;;;;6.85;0.80;;;22.10;99.90;;;;;;5069041;28;20457;-84
2022/09/13 10:56:24;;;;;;;7.88;1.38;;;22.30;99.90;;;;;;5059180;28;20044;-81
2022/09/13 10:58:50;;;;;;;2.88;0.85;;;22.40;98.90;;;;;;5067327;28;20038;-83
2022/09/13 11:01:49;;;;;;;5.50;0.63;;;22.20;98.80;;;;;;5075772;28;20039;-83
2022/09/13 11:04:39;;;;;;;4.40;0.80;;;21.90;99.90;;;;;;5038615;28;20056;-83
2022/09/13 11:07:27;;;;;;;5.03;0.80;;;21.80;99.90;;;;;;5063901;28;20047;-83
2022/09/13 11:10:11;;;;;;;5.07;1.40;;;21.60;99.90;;;;;;5079169;28;20087;-83
2022/09/13 11:12:46;;;;;;;4.00;0.80;;;21.60;99.90;;;;;;5071381;28;20418;-83
2022/09/13 11:15:26;;;;;;;3.65;0.80;;;21.60;99.90;;;;;;5061871;28;20390;-82
2022/09/13 11:18:20;;;;;;;4.90;0.60;;;21.80;99.90;;;;;;5064810;28;20410;-83
2022/09/13 11:21:10;;;;;;;7.85;0.90;;;21.90;99.90;;;;;;5065833;28;20047;-83
2022/09/13 11:24:06;;;;;;;3.53;0.60;;;22.00;99.90;;;;;;5059212;28;20048;-84
2022/09/13 11:26:37;;;;;;;6.18;0.95;;;22.10;99.90;;;;;;5064944;28;20047;-83
2022/09/13 11:29:26;;;;;;;4.18;0.57;;;22.30;99.90;;;;;;5058647;28;20051;-83
2022/09/13 11:32:07;;;;;;;4.03;0.60;;;22.40;99.60;;;;;;5062300;28;20040;-83
2022/09/13 11:35:15;;;;;;;4.53;0.65;;;22.50;99.90;;;;;;5065565;28;20044;-84
2022/09/13 11:37:50;;;;;;;4.10;0.90;;;22.50;99.90;;;;;;5063607;28;20048;-81
2022/09/13 11:40:43;;;;;;;4.05;0.60;;;22.50;96.30;;;;;;5080323;28;20051;-83
2022/09/13 11:43:30;;;;;;;3.75;0.73;;;22.30;96.60;;;;;;5059011;28;20777;-81
2022/09/13 11:46:50;;;;;;;;;;;;;;;;;;;;;
2022/09/13 11:49:36;;;;;;;;;;;22.10;96.70;;;;;;5089785;28;20043;-85
2022/09/13 11:52:23;;;;;;;4.63;0.95;;;21.90;99.90;;;;;;5082846;27;20018;-84
2022/09/13 11:55:27;;;;;;;4.85;0.75;;;21.90;99.90;;;;;;5083247;28;20028;-84
2022/09/13 11:57:57;;;;;;;5.78;1.23;;;22.00;99.90;;;;;;5070193;28;20101;-84
2022/09/13 12:00:29;;;;;;;4.25;0.80;;;22.10;99.90;;;;;;5071322;28;20097;-83
2022/09/13 12:03:33;;;;;;;5.03;0.88;;;22.20;99.90;;;;;;5060547;28;20395;-83
2022/09/13 12:06:06;;;;;;;4.40;0.77;;;22.20;99.90;;;;;;5084901;28;20048;-83
2022/09/13 12:08:36;;;;;;;3.70;0.70;;;22.20;99.90;;;;;;5064178;28;20036;-84
2022/09/13 12:11:18;;;;;;;4.93;0.90;;;22.20;99.90;;;;;;5062254;28;20044;-84
2022/09/13 12:14:06;;;;;;;4.13;0.73;;;22.10;99.90;;;;;;5067730;28;20044;-83
2022/09/13 12:16:56;;;;;;;4.35;0.65;;;22.00;99.90;;;;;;5063361;28;20040;-83
2022/09/13 12:19:26;;;;;;;5.32;1.10;;;22.10;98.60;;;;;;5067072;28;20145;-83
2022/09/13 12:22:01;;;;;;;6.00;1.25;;;22.10;99.00;;;;;;5064374;28;20045;-84
2022/09/13 12:24:40;;;;;;;4.32;0.77;;;22.10;99.90;;;;;;5069045;28;20046;-83
2022/09/13 12:27:13;;;;;;;4.25;0.68;;;22.20;99.90;;;;;;5061475;28;20047;-83
2022/09/13 12:30:14;;;;;;;4.60;0.60;;;22.20;99.90;;;;;;5067252;28;20519;-83
2022/09/13 12:32:43;;;;;;;4.65;0.70;;;22.10;99.90;;;;;;5066133;28;20121;-84
2022/09/13 12:35:21;;;;;;;3.38;0.70;;;22.00;99.90;;;;;;5031425;28;20087;-83
2022/09/13 12:37:53;;;;;;;2.60;0.70;;;21.90;99.90;;;;;;5063723;28;20399;-84
2022/09/13 12:40:57;;;;;;;4.80;0.63;;;21.90;99.80;;;;;;5063111;28;20036;-83
2022/09/13 12:43:54;;;;;;;7.13;1.30;;;21.90;99.90;;;;;;5055572;28;20052;-82
2022/09/13 12:46:42;;;;;;;2.78;0.68;;;21.80;98.40;;;;;;5064488;28;20090;-84
2022/09/13 12:49:29;;;;;;;6.15;0.90;;;21.90;96.70;;;;;;5057055;28;20079;-82
2022/09/13 12:52:17;;;;;;;5.90;0.80;;;21.80;96.60;;;;;;5071443;28;20565;-83
2022/09/13 12:55:13;;;;;;;4.65;0.70;;;22.00;97.30;;;;;;5070998;28;20072;-83
2022/09/13 12:57:57;;;;;;;6.03;0.82;;;22.10;96.00;;;;;;5073126;28;20066;-82
2022/09/13 13:00:27;;;;;;;8.02;1.27;;;22.10;95.00;;;;;;5061489;28;20044;-80
2022/09/13 13:02:56;;;;;;;4.97;0.65;;;22.10;94.40;;;;;;5060024;28;20059;-83
2022/09/13 13:05:30;;;;;;;4.67;1.00;;;22.20;94.50;;;;;;5064582;28;20441;-80
2022/09/13 13:08:18;;;;;;;3.60;0.80;;;22.10;94.40;;;;;;5067772;28;20052;-83
2022/09/13 13:11:06;;;;;;;5.95;1.00;;;22.10;95.70;;;;;;5062351;28;20040;-83
2022/09/13 13:13:43;;;;;;;4.97;0.93;;;22.10;96.50;;;;;;5065009;28;20499;-84
2022/09/13 13:16:32;;;;;;;5.93;0.82;;;22.20;93.50;;;;;;5065249;28;20469;-83
2022/09/13 13:19:28;;;;;;;6.13;0.90;;;22.20;95.60;;;;;;5064220;28;20033;-83
2022/09/13 13:22:32;;;;;;;5.00;0.80;;;22.30;97.50;;;;;;5063733;28;20051;-83
2022/09/13 13:25:37;;;;;;;5.00;0.80;;;22.30;97.00;;;;;;5060028;28;20051;-84
2022/09/13 13:28:22;;;;;;;4.55;0.82;;;22.30;98.40;;;;;;5074243;28;20108;-82